Time;durP1;ratioP1;P1;durP2;ratioP2;P2;SDS_P1;SDS_P2;PMS_P1;PMS_P2;Temp;Humidity;BMP_temperature;BMP_pressure;BME280_temperature;BME280_humidity;BME280_pressure;Samples;Min_cycle;Max_cycle;Signal;HPM_P1;HPM_P2
2022/06/06 00:01:51;;;;;;;2.63;2.33;;;;;;;;;;4561615;28;20622;-68
2022/06/06 00:04:01;;;;;;;2.92;2.65;;;;;;;;;;4562900;27;20641;-68
2022/06/06 00:06:18;;;;;;;3.33;2.70;;;;;;;;;;4562350;27;20036;-68
2022/06/06 00:08:28;;;;;;;;;;;;;;;;;;4564957;28;20125;-69
2022/06/06 00:10:40;;;;;;;2.50;2.30;;;;;;;;;;4571521;28;19962;-69
2022/06/06 00:12:51;;;;;;;3.47;3.08;;;;;;;;;;4565811;28;20151;-67
2022/06/06 00:15:03;;;;;;;4.95;3.97;;;;;;;;;;4549315;28;20529;-68
2022/06/06 00:17:13;;;;;;;5.93;4.75;;;;;;;;;;4561270;28;20086;-68
2022/06/06 00:19:24;;;;;;;5.07;4.57;;;;;;;;;;4561502;28;20045;-69
2022/06/06 00:21:35;;;;;;;5.75;4.82;;;;;;;;;;4570504;28;20044;-68
2022/06/06 00:23:46;;;;;;;4.80;4.30;;;;;;;;;;4570682;28;20102;-68
2022/06/06 00:25:57;;;;;;;5.30;4.53;;;;;;;;;;4565504;27;20058;-68
2022/06/06 00:28:07;;;;;;;5.07;4.50;;;;;;;;;;4562180;28;20045;-68
2022/06/06 00:30:18;;;;;;;5.88;4.97;;;;;;;;;;4564250;28;20033;-68
2022/06/06 00:35:03;;;;;;;4.95;4.40;;;;;;;;;;4554819;28;20041;-68
2022/06/06 00:37:16;;;;;;;4.72;4.22;;;;;;;;;;4563999;27;20673;-68
2022/06/06 00:39:27;;;;;;;5.82;4.95;;;;;;;;;;4565719;28;20070;-68
2022/06/06 00:41:43;;;;;;;5.15;4.65;;;;;;;;;;4561512;28;20021;-68
2022/06/06 00:44:05;;;;;;;5.13;4.60;;;;;;;;;;4566042;28;20037;-68
2022/06/06 00:46:15;;;;;;;5.63;4.88;;;;;;;;;;4564788;28;20678;-68
2022/06/06 00:48:38;;;;;;;5.60;4.85;;;;;;;;;;4563703;27;20040;-68
2022/06/06 00:51:04;;;;;;;5.45;4.75;;;;;;;;;;4561651;28;20063;-68
2022/06/06 00:53:19;;;;;;;5.18;4.65;;;;;;;;;;4562221;27;20028;-68
2022/06/06 00:55:32;;;;;;;5.85;4.95;;;;;;;;;;4561310;28;20033;-68
2022/06/06 00:57:50;;;;;;;5.57;4.93;;;;;;;;;;4547535;28;20029;-68
2022/06/06 01:00:04;;;;;;;5.05;4.55;;;;;;;;;;4563015;28;20055;-68
2022/06/06 01:02:16;;;;;;;6.15;5.25;;;;;;;;;;4561529;28;20036;-68
2022/06/06 01:04:27;;;;;;;6.13;5.45;;;;;;;;;;4562276;28;20033;-68
2022/06/06 01:06:41;;;;;;;5.60;5.00;;;;;;;;;;4547162;28;20469;-68
2022/06/06 01:08:51;;;;;;;5.53;4.68;;;;;;;;;;4564444;28;20048;-68
2022/06/06 01:11:02;;;;;;;5.47;4.80;;;;;;;;;;4562177;28;20040;-68
2022/06/06 01:13:13;;;;;;;5.40;4.80;;;;;;;;;;4563076;27;20389;-68
2022/06/06 01:15:25;;;;;;;5.78;4.85;;;;;;;;;;4547176;28;20040;-68
2022/06/06 01:17:53;;;;;;;5.70;4.70;;;;;;;;;;4561030;28;20646;-68
2022/06/06 01:20:19;;;;;;;4.97;4.40;;;;;;;;;;4561560;28;20039;-67
2022/06/06 01:22:54;;;;;;;4.90;4.40;;;;;;;;;;4563171;28;20041;-68
2022/06/06 01:25:34;;;;;;;5.35;4.35;;;;;;;;;;4553125;28;20982;-68
2022/06/06 01:28:01;;;;;;;4.63;4.20;;;;;;;;;;4564470;28;20036;-69
2022/06/06 01:30:15;;;;;;;6.43;4.90;;;;;;;;;;4563871;28;20089;-68
2022/06/06 01:32:27;;;;;;;5.13;4.47;;;;;;;;;;4561090;28;20090;-68
2022/06/06 01:34:41;;;;;;;5.95;4.93;;;;;;;;;;4561377;28;20037;-68
2022/06/06 01:36:53;;;;;;;6.72;5.35;;;;;;;;;;4562270;28;20036;-68
2022/06/06 01:39:07;;;;;;;5.57;4.90;;;;;;;;;;4561760;28;20024;-69
2022/06/06 01:41:50;;;;;;;6.57;5.05;;;;;;;;;;4559191;28;20025;-69
2022/06/06 01:44:07;;;;;;;6.75;5.50;;;;;;;;;;4560641;28;20040;-68
2022/06/06 01:46:26;;;;;;;6.82;5.60;;;;;;;;;;4564075;28;20579;-68
2022/06/06 01:48:39;;;;;;;7.32;5.60;;;;;;;;;;4562109;27;20043;-68
2022/06/06 01:50:50;;;;;;;8.13;5.93;;;;;;;;;;4552477;28;20118;-68
2022/06/06 01:53:08;;;;;;;7.80;5.93;;;;;;;;;;4559341;28;20620;-68
2022/06/06 01:55:19;;;;;;;6.95;5.03;;;;;;;;;;4565222;28;20081;-68
2022/06/06 01:57:30;;;;;;;7.40;5.80;;;;;;;;;;4559751;28;20079;-68
2022/06/06 01:59:40;;;;;;;7.20;5.70;;;;;;;;;;4561268;28;20214;-68
2022/06/06 02:01:52;;;;;;;6.65;5.18;;;;;;;;;;4561191;28;20033;-68
2022/06/06 02:04:02;;;;;;;6.43;4.95;;;;;;;;;;4561677;28;21060;-68
2022/06/06 02:06:13;;;;;;;6.25;5.03;;;;;;;;;;4565716;28;20104;-68
2022/06/06 02:08:24;;;;;;;6.22;5.05;;;;;;;;;;4565354;28;20416;-68
2022/06/06 02:10:35;;;;;;;7.13;5.43;;;;;;;;;;4566426;27;20036;-68
2022/06/06 02:12:46;;;;;;;7.80;5.75;;;;;;;;;;4565141;28;20029;-68
2022/06/06 02:14:56;;;;;;;7.63;5.97;;;;;;;;;;4562875;28;20021;-68
2022/06/06 02:17:07;;;;;;;7.63;5.90;;;;;;;;;;4563732;28;20048;-68
2022/06/06 02:19:18;;;;;;;6.95;5.60;;;;;;;;;;4564108;28;20032;-68
2022/06/06 02:21:28;;;;;;;7.18;5.72;;;;;;;;;;4565732;28;20037;-68
2022/06/06 02:23:39;;;;;;;8.90;6.30;;;;;;;;;;4566521;28;20028;-66
2022/06/06 02:25:49;;;;;;;9.02;6.47;;;;;;;;;;4565420;28;20033;-66
2022/06/06 02:28:01;;;;;;;7.40;5.95;;;;;;;;;;4565259;28;24928;-66
2022/06/06 02:30:15;;;;;;;8.93;6.85;;;;;;;;;;4562387;28;20028;-66
2022/06/06 02:32:25;;;;;;;9.93;7.30;;;;;;;;;;4565233;28;20024;-66
2022/06/06 02:34:36;;;;;;;8.73;6.57;;;;;;;;;;4563557;28;20505;-66
2022/06/06 02:36:46;;;;;;;9.82;7.25;;;;;;;;;;4564267;28;20044;-66
2022/06/06 02:38:57;;;;;;;9.20;7.55;;;;;;;;;;4565835;28;20041;-66
2022/06/06 02:41:10;;;;;;;9.68;7.72;;;;;;;;;;4564111;27;20045;-67
2022/06/06 02:43:21;;;;;;;11.05;8.35;;;;;;;;;;4566907;28;20142;-66
2022/06/06 02:45:31;;;;;;;10.55;8.48;;;;;;;;;;4563992;28;20034;-66
2022/06/06 02:47:47;;;;;;;10.43;8.15;;;;;;;;;;4566228;28;20036;-66
2022/06/06 02:49:58;;;;;;;10.90;7.95;;;;;;;;;;4563979;28;20610;-66
2022/06/06 02:52:08;;;;;;;12.02;8.35;;;;;;;;;;4563071;28;20105;-66
2022/06/06 02:54:19;;;;;;;10.40;8.18;;;;;;;;;;4563842;28;20040;-66
2022/06/06 02:56:29;;;;;;;10.90;8.18;;;;;;;;;;4563226;28;20086;-66
2022/06/06 02:58:40;;;;;;;13.00;9.15;;;;;;;;;;4563488;28;20044;-66
2022/06/06 03:00:58;;;;;;;11.57;8.98;;;;;;;;;;4566291;28;20040;-66
2022/06/06 03:03:09;;;;;;;10.40;8.10;;;;;;;;;;4563195;27;20102;-65
2022/06/06 03:05:20;;;;;;;9.88;7.65;;;;;;;;;;4565282;27;20101;-66
2022/06/06 03:07:48;;;;;;;12.13;8.10;;;;;;;;;;4564031;28;20585;-68
2022/06/06 03:10:19;;;;;;;11.63;8.63;;;;;;;;;;4564102;28;20672;-67
2022/06/06 03:12:58;;;;;;;10.63;7.80;;;;;;;;;;4564008;28;20040;-68
2022/06/06 03:20:46;;;;;;;10.93;8.18;;;;;;;;;;4565858;28;20202;-68
2022/06/06 03:21:09;;;;;;;11.48;8.02;;;;;;;;;;4562829;28;20068;-65
2022/06/06 03:23:47;;;;;;;10.93;8.40;;;;;;;;;;4562751;28;20728;-66
2022/06/06 03:26:35;;;;;;;10.25;7.72;;;;;;;;;;4564243;28;20040;-66
2022/06/06 03:29:08;;;;;;;9.00;6.80;;;;;;;;;;4571164;28;20044;-66
2022/06/06 03:31:43;;;;;;;10.30;7.78;;;;;;;;;;4564422;28;20696;-66
2022/06/06 03:34:06;;;;;;;10.30;7.55;;;;;;;;;;4565494;28;20040;-66
2022/06/06 03:36:28;;;;;;;9.15;6.93;;;;;;;;;;4563934;28;20036;-66
2022/06/06 03:38:46;;;;;;;9.48;6.97;;;;;;;;;;4564488;28;20984;-66
2022/06/06 03:41:06;;;;;;;9.20;6.60;;;;;;;;;;4564894;28;20036;-66
2022/06/06 03:43:26;;;;;;;9.93;7.22;;;;;;;;;;4564588;28;20036;-66
2022/06/06 03:46:23;;;;;;;9.60;6.85;;;;;;;;;;4565048;28;20102;-66
2022/06/06 03:49:00;;;;;;;8.90;6.72;;;;;;;;;;4552968;28;20056;-68
2022/06/06 03:51:32;;;;;;;8.90;6.60;;;;;;;;;;4560486;28;20044;-68
2022/06/06 03:53:45;;;;;;;8.63;6.70;;;;;;;;;;4561606;28;20040;-68
2022/06/06 03:56:44;;;;;;;9.25;6.55;;;;;;;;;;4560612;28;20043;-68
2022/06/06 03:58:55;;;;;;;8.40;6.22;;;;;;;;;;4538817;27;20102;-68
2022/06/06 04:01:09;;;;;;;8.50;6.20;;;;;;;;;;4563217;28;20519;-68
2022/06/06 04:03:20;;;;;;;8.00;5.93;;;;;;;;;;4563211;28;20034;-68
2022/06/06 04:05:31;;;;;;;7.68;5.85;;;;;;;;;;4561220;28;20777;-68
2022/06/06 04:07:41;;;;;;;7.97;6.20;;;;;;;;;;4562082;28;20032;-68
2022/06/06 04:09:52;;;;;;;8.25;6.28;;;;;;;;;;4562017;27;20447;-68
2022/06/06 04:12:24;;;;;;;7.82;5.35;;;;;;;;;;4561900;28;20098;-68
2022/06/06 04:14:53;;;;;;;7.30;5.68;;;;;;;;;;4563993;28;20064;-69
2022/06/06 04:17:16;;;;;;;6.93;5.70;;;;;;;;;;4563005;28;20136;-68
2022/06/06 04:19:51;;;;;;;6.85;5.50;;;;;;;;;;4561783;28;20059;-68
2022/06/06 04:22:23;;;;;;;7.18;5.88;;;;;;;;;;4564300;28;20159;-69
2022/06/06 04:24:55;;;;;;;7.93;5.70;;;;;;;;;;4563562;28;20040;-68
2022/06/06 04:27:16;;;;;;;7.63;5.68;;;;;;;;;;4563760;28;20166;-69
2022/06/06 04:29:35;;;;;;;8.00;6.03;;;;;;;;;;4564923;28;20031;-69
2022/06/06 04:32:00;;;;;;;7.20;5.82;;;;;;;;;;4563505;28;20036;-69
2022/06/06 04:34:21;;;;;;;7.13;5.35;;;;;;;;;;4562218;28;20032;-68
2022/06/06 04:36:37;;;;;;;7.75;5.80;;;;;;;;;;4561554;28;20106;-69
2022/06/06 04:39:08;;;;;;;6.20;5.00;;;;;;;;;;4564872;28;20569;-70
2022/06/06 04:41:37;;;;;;;7.00;5.45;;;;;;;;;;4563872;28;20032;-68
2022/06/06 04:43:53;;;;;;;7.47;5.28;;;;;;;;;;4560898;28;20138;-68
2022/06/06 04:46:07;;;;;;;6.85;5.32;;;;;;;;;;4545227;28;20789;-69
2022/06/06 04:48:19;;;;;;;7.57;5.85;;;;;;;;;;4562321;28;20566;-69
2022/06/06 04:50:30;;;;;;;7.63;5.60;;;;;;;;;;4559114;28;20040;-68
2022/06/06 04:52:42;;;;;;;7.53;5.32;;;;;;;;;;4562932;28;20024;-69
2022/06/06 04:54:53;;;;;;;7.50;5.70;;;;;;;;;;4562787;28;20663;-69
2022/06/06 04:57:04;;;;;;;7.05;5.20;;;;;;;;;;4561694;28;20127;-69
2022/06/06 04:59:16;;;;;;;7.03;5.28;;;;;;;;;;4562026;28;20763;-69
2022/06/06 05:01:26;;;;;;;7.15;5.10;;;;;;;;;;4560700;28;20032;-68
2022/06/06 05:03:37;;;;;;;8.15;5.40;;;;;;;;;;4570773;28;20036;-69
2022/06/06 05:05:57;;;;;;;7.78;5.22;;;;;;;;;;4560928;28;20029;-69
2022/06/06 05:08:31;;;;;;;6.60;5.15;;;;;;;;;;4561168;27;20043;-69
2022/06/06 05:11:05;;;;;;;6.75;5.32;;;;;;;;;;4562862;28;20037;-69
2022/06/06 05:13:26;;;;;;;6.93;5.22;;;;;;;;;;4564759;28;20039;-68
2022/06/06 05:16:12;;;;;;;7.07;5.25;;;;;;;;;;4562203;28;20036;-68
2022/06/06 05:18:43;;;;;;;5.60;4.70;;;;;;;;;;4545785;28;20046;-68
2022/06/06 05:21:08;;;;;;;5.50;4.70;;;;;;;;;;4562561;28;20041;-69
2022/06/06 05:23:25;;;;;;;7.72;5.60;;;;;;;;;;4563483;28;20152;-69
2022/06/06 05:26:30;;;;;;;6.47;5.18;;;;;;;;;;4564514;28;20036;-69
2022/06/06 05:28:44;;;;;;;6.70;5.20;;;;;;;;;;4535444;28;20072;-69
2022/06/06 05:31:01;;;;;;;6.55;5.03;;;;;;;;;;4558193;27;20615;-68
2022/06/06 05:33:18;;;;;;;6.68;4.72;;;;;;;;;;4561917;28;20126;-69
2022/06/06 05:35:40;;;;;;;6.28;4.50;;;;;;;;;;4562328;28;20667;-69
2022/06/06 05:38:09;;;;;;;6.32;4.95;;;;;;;;;;4562248;28;20575;-69
2022/06/06 05:40:32;;;;;;;5.75;4.28;;;;;;;;;;4566939;28;20698;-68
2022/06/06 05:42:49;;;;;;;5.72;4.57;;;;;;;;;;4565668;27;20615;-69
2022/06/06 05:45:37;;;;;;;5.78;4.63;;;;;;;;;;4565603;28;20325;-68
2022/06/06 05:48:33;;;;;;;7.88;4.72;;;;;;;;;;4565941;28;20039;-71
2022/06/06 05:51:11;;;;;;;6.95;4.90;;;;;;;;;;4526688;28;21279;-71
2022/06/06 05:53:45;;;;;;;6.53;5.05;;;;;;;;;;4557536;28;20124;-71
2022/06/06 05:56:15;;;;;;;5.93;4.75;;;;;;;;;;4566230;27;20037;-71
2022/06/06 05:58:45;;;;;;;6.25;4.38;;;;;;;;;;4564780;28;20094;-71
2022/06/06 06:01:25;;;;;;;5.72;4.60;;;;;;;;;;4566763;28;20751;-75
2022/06/06 06:03:57;;;;;;;5.80;4.25;;;;;;;;;;4564853;28;20040;-76
2022/06/06 06:06:26;;;;;;;6.30;4.50;;;;;;;;;;4564880;28;20058;-72
2022/06/06 06:09:01;;;;;;;4.65;3.65;;;;;;;;;;4564046;28;20044;-73
2022/06/06 06:11:57;;;;;;;4.60;3.60;;;;;;;;;;4563970;28;20161;-72
2022/06/06 06:14:22;;;;;;;4.75;3.13;;;;;;;;;;4564345;27;20028;-72
2022/06/06 06:16:38;;;;;;;4.18;3.20;;;;;;;;;;4567213;28;20024;-73
2022/06/06 06:18:55;;;;;;;4.15;3.13;;;;;;;;;;4563040;28;20658;-72
2022/06/06 06:21:17;;;;;;;3.58;2.90;;;;;;;;;;4565858;28;20056;-72
2022/06/06 06:23:30;;;;;;;5.18;3.45;;;;;;;;;;4572860;28;20105;-72
2022/06/06 06:25:41;;;;;;;4.43;3.13;;;;;;;;;;4564297;27;20678;-72
2022/06/06 06:27:57;;;;;;;3.67;2.78;;;;;;;;;;4564929;28;20814;-72
2022/06/06 06:30:09;;;;;;;3.60;2.92;;;;;;;;;;4562764;28;20043;-71
2022/06/06 06:32:33;;;;;;;3.97;2.85;;;;;;;;;;4573438;28;21311;-72
2022/06/06 06:34:49;;;;;;;3.40;2.80;;;;;;;;;;4556505;28;20748;-72
2022/06/06 06:37:14;;;;;;;4.22;2.85;;;;;;;;;;4564413;28;20032;-72
2022/06/06 06:39:57;;;;;;;3.53;2.83;;;;;;;;;;4565148;28;20040;-72
2022/06/06 06:42:46;;;;;;;3.50;2.70;;;;;;;;;;4536355;27;20081;-72
2022/06/06 06:45:09;;;;;;;3.35;2.65;;;;;;;;;;4564669;28;20036;-73
2022/06/06 06:47:26;;;;;;;2.97;2.40;;;;;;;;;;4562956;28;20028;-72
2022/06/06 06:49:42;;;;;;;2.42;1.90;;;;;;;;;;4571758;28;20511;-72
2022/06/06 06:52:08;;;;;;;2.35;1.95;;;;;;;;;;4565735;28;20039;-72
2022/06/06 06:54:19;;;;;;;2.95;2.00;;;;;;;;;;4565218;28;20033;-72
2022/06/06 06:57:07;;;;;;;2.55;2.00;;;;;;;;;;4563420;28;20060;-71
2022/06/06 06:59:47;;;;;;;2.17;1.80;;;;;;;;;;4565208;28;20122;-72
2022/06/06 07:10:20;;;;;;;2.28;2.00;;;;;;;;;;4548696;28;20512;-72
2022/06/06 07:12:43;;;;;;;;;;;;;;;;;;4564728;28;20032;-72
2022/06/06 07:15:03;;;;;;;2.60;2.00;;;;;;;;;;4562650;28;19916;-72
2022/06/06 07:17:14;;;;;;;2.67;1.98;;;;;;;;;;4563152;27;20301;-72
2022/06/06 07:19:50;;;;;;;2.97;1.90;;;;;;;;;;4572484;28;20086;-72
2022/06/06 07:22:02;;;;;;;2.55;1.90;;;;;;;;;;4557957;28;20139;-72
2022/06/06 07:24:18;;;;;;;2.55;2.00;;;;;;;;;;4562302;28;20551;-72
2022/06/06 07:26:29;;;;;;;2.45;1.90;;;;;;;;;;4563288;27;20079;-72
2022/06/06 07:28:39;;;;;;;2.10;1.80;;;;;;;;;;4549463;28;20139;-72
2022/06/06 07:30:56;;;;;;;2.80;1.70;;;;;;;;;;4562222;28;20555;-64
2022/06/06 07:33:19;;;;;;;2.58;1.95;;;;;;;;;;4563455;28;20039;-69
2022/06/06 07:35:39;;;;;;;2.05;1.70;;;;;;;;;;4563310;28;20020;-69
2022/06/06 07:38:12;;;;;;;2.33;1.90;;;;;;;;;;4566981;28;20031;-70
2022/06/06 07:41:00;;;;;;;2.60;2.05;;;;;;;;;;4563336;28;20856;-71
2022/06/06 07:43:25;;;;;;;2.05;1.70;;;;;;;;;;4561466;27;20071;-75
2022/06/06 07:45:46;;;;;;;2.30;1.73;;;;;;;;;;4564160;28;20642;-71
2022/06/06 07:48:13;;;;;;;2.50;1.85;;;;;;;;;;4570734;28;20036;-72
2022/06/06 07:50:26;;;;;;;2.43;1.90;;;;;;;;;;4555703;27;20942;-66
2022/06/06 07:52:42;;;;;;;2.50;2.10;;;;;;;;;;4531842;28;20298;-75
2022/06/06 07:55:17;;;;;;;2.08;1.83;;;;;;;;;;4565935;27;20028;-67
2022/06/06 07:57:45;;;;;;;1.90;1.70;;;;;;;;;;4561003;28;20087;-71
2022/06/06 08:00:05;;;;;;;;;;;;;;;;;;4555946;27;20041;-70
2022/06/06 08:02:56;;;;;;;2.58;1.80;;;;;;;;;;4561366;28;19967;-70
2022/06/06 08:05:45;;;;;;;1.80;1.52;;;;;;;;;;4563029;28;20123;-70
2022/06/06 08:08:07;;;;;;;2.20;1.60;;;;;;;;;;4543657;28;20887;-71
2022/06/06 08:10:26;;;;;;;1.95;1.65;;;;;;;;;;4571401;28;20048;-71
2022/06/06 08:12:42;;;;;;;2.13;1.83;;;;;;;;;;4538763;27;20161;-70
2022/06/06 08:15:03;;;;;;;2.28;1.85;;;;;;;;;;4543620;28;20456;-70
2022/06/06 08:17:32;;;;;;;1.48;1.38;;;;;;;;;;4549448;28;20135;-71
2022/06/06 08:20:21;;;;;;;1.48;1.27;;;;;;;;;;4558348;27;20098;-71
2022/06/06 08:22:32;;;;;;;1.73;1.40;;;;;;;;;;4544978;28;20044;-71
2022/06/06 08:24:47;;;;;;;1.88;1.30;;;;;;;;;;4562065;28;20032;-71
2022/06/06 08:27:00;;;;;;;1.40;1.27;;;;;;;;;;4551707;28;20106;-70
2022/06/06 08:29:11;;;;;;;1.27;1.13;;;;;;;;;;4563393;28;20119;-70
2022/06/06 08:31:22;;;;;;;1.20;1.10;;;;;;;;;;4562082;27;20029;-70
2022/06/06 08:33:33;;;;;;;1.63;1.20;;;;;;;;;;4561792;28;20550;-70
2022/06/06 08:36:07;;;;;;;2.00;1.40;;;;;;;;;;4561540;28;20059;-69
2022/06/06 08:38:49;;;;;;;1.42;1.30;;;;;;;;;;4559848;28;20037;-70
2022/06/06 08:41:20;;;;;;;1.40;1.10;;;;;;;;;;4561503;28;20040;-69
2022/06/06 08:43:33;;;;;;;1.58;1.27;;;;;;;;;;4560239;28;20445;-69
2022/06/06 08:46:10;;;;;;;1.95;1.27;;;;;;;;;;4558894;28;20119;-69
2022/06/06 08:48:38;;;;;;;1.77;1.30;;;;;;;;;;4536446;28;20061;-70
2022/06/06 08:51:09;;;;;;;1.33;1.23;;;;;;;;;;4559830;28;20599;-70
2022/06/06 08:53:44;;;;;;;1.30;1.08;;;;;;;;;;4568086;27;20036;-69
2022/06/06 08:56:06;;;;;;;1.20;1.00;;;;;;;;;;4553230;27;20068;-72
2022/06/06 08:59:05;;;;;;;1.77;1.40;;;;;;;;;;4558649;28;20131;-67
2022/06/06 09:01:37;;;;;;;2.28;1.30;;;;;;;;;;4545552;28;20552;-72
2022/06/06 09:04:07;;;;;;;1.58;1.33;;;;;;;;;;4562020;28;20602;-74
2022/06/06 09:06:41;;;;;;;1.40;1.30;;;;;;;;;;4554248;28;20044;-72
2022/06/06 09:09:07;;;;;;;2.63;1.90;;;;;;;;;;4560217;28;20052;-71
2022/06/06 09:11:54;;;;;;;2.20;1.80;;;;;;;;;;4561868;28;20036;-69
2022/06/06 09:14:56;;;;;;;2.00;1.80;;;;;;;;;;4560075;27;20024;-71
2022/06/06 09:17:48;;;;;;;2.60;2.05;;;;;;;;;;4532135;28;20051;-72
2022/06/06 09:20:28;;;;;;;2.15;1.88;;;;;;;;;;4563496;28;20024;-72
2022/06/06 09:22:43;;;;;;;2.33;2.08;;;;;;;;;;4574953;27;20051;-72
2022/06/06 09:25:36;;;;;;;1.92;1.77;;;;;;;;;;4561373;28;20032;-72
2022/06/06 09:27:58;;;;;;;1.85;1.73;;;;;;;;;;4539796;28;20054;-72
2022/06/06 09:30:53;;;;;;;1.40;1.30;;;;;;;;;;4559317;28;20032;-71
2022/06/06 09:33:06;;;;;;;1.77;1.40;;;;;;;;;;4531055;27;20119;-72
2022/06/06 09:35:39;;;;;;;1.52;1.08;;;;;;;;;;4560921;28;20710;-71
2022/06/06 09:38:35;;;;;;;1.30;1.20;;;;;;;;;;4563015;28;20131;-72
2022/06/06 09:41:23;;;;;;;1.17;1.05;;;;;;;;;;4561705;28;20028;-72
2022/06/06 09:43:40;;;;;;;2.30;1.20;;;;;;;;;;4568193;28;20032;-71
2022/06/06 09:46:27;;;;;;;1.10;1.00;;;;;;;;;;4551081;28;20060;-72
2022/06/06 09:48:37;;;;;;;1.23;1.13;;;;;;;;;;4558257;28;20134;-72
2022/06/06 09:50:57;;;;;;;1.77;1.17;;;;;;;;;;4557962;27;20785;-71
2022/06/06 09:53:34;;;;;;;1.67;1.30;;;;;;;;;;4559959;28;20135;-72
2022/06/06 09:59:30;;;;;;;1.17;1.00;;;;;;;;;;4556592;28;20036;-74
2022/06/06 10:02:06;;;;;;;2.00;1.00;;;;;;;;;;4558833;28;20060;-65
2022/06/06 10:04:45;;;;;;;1.15;0.90;;;;;;;;;;4567603;27;20137;-73
2022/06/06 10:07:03;;;;;;;0.73;0.70;;;;;;;;;;4543691;28;20041;-70
2022/06/06 10:09:51;;;;;;;1.23;1.10;;;;;;;;;;4559505;28;20586;-66
2022/06/06 10:12:20;;;;;;;1.33;1.10;;;;;;;;;;4557390;28;20667;-66
2022/06/06 10:14:40;;;;;;;1.10;1.00;;;;;;;;;;4558909;28;20101;-67
2022/06/06 10:17:15;;;;;;;1.10;1.00;;;;;;;;;;4559433;28;20098;-77
2022/06/06 10:19:56;;;;;;;2.00;1.20;;;;;;;;;;4561546;28;20617;-72
2022/06/06 10:22:44;;;;;;;1.13;1.00;;;;;;;;;;4562246;28;20048;-76
2022/06/06 10:25:16;;;;;;;1.10;0.90;;;;;;;;;;4560878;27;20049;-78
2022/06/06 10:27:38;;;;;;;1.00;0.90;;;;;;;;;;4565321;28;20089;-78
2022/06/06 10:30:13;;;;;;;0.82;0.73;;;;;;;;;;4564066;27;20626;-75
2022/06/06 10:32:34;;;;;;;0.70;0.60;;;;;;;;;;4562384;27;20033;-68
2022/06/06 10:35:02;;;;;;;1.00;0.70;;;;;;;;;;4562788;28;20150;-73
2022/06/06 10:37:31;;;;;;;1.00;0.80;;;;;;;;;;4562467;28;20024;-73
2022/06/06 10:39:56;;;;;;;0.98;0.70;;;;;;;;;;4565857;28;20756;-71
2022/06/06 10:42:29;;;;;;;0.77;0.75;;;;;;;;;;4562900;27;20068;-71
2022/06/06 10:44:52;;;;;;;0.95;0.82;;;;;;;;;;4571048;28;21036;-71
2022/06/06 10:47:40;;;;;;;0.63;0.60;;;;;;;;;;4561510;28;20040;-71
2022/06/06 10:50:16;;;;;;;0.77;0.70;;;;;;;;;;4562014;28;20055;-72
2022/06/06 10:52:53;;;;;;;0.63;0.60;;;;;;;;;;4562044;28;20037;-74
2022/06/06 10:55:35;;;;;;;0.98;0.57;;;;;;;;;;4561572;28;20070;-74
2022/06/06 10:57:55;;;;;;;0.52;0.52;;;;;;;;;;4564449;28;20095;-73
2022/06/06 11:00:12;;;;;;;0.50;0.50;;;;;;;;;;4565470;28;20075;-71
2022/06/06 11:02:41;;;;;;;0.47;0.45;;;;;;;;;;4562430;27;20489;-71
2022/06/06 11:05:11;;;;;;;1.02;0.50;;;;;;;;;;4561810;28;20308;-73
2022/06/06 11:07:27;;;;;;;1.05;0.40;;;;;;;;;;4552456;28;20037;-72
2022/06/06 11:09:50;;;;;;;0.47;0.47;;;;;;;;;;4564129;28;20214;-73
2022/06/06 11:12:26;;;;;;;0.55;0.50;;;;;;;;;;4563597;28;20034;-72
2022/06/06 11:14:38;;;;;;;0.40;0.40;;;;;;;;;;4560115;28;20133;-72
2022/06/06 11:17:14;;;;;;;0.50;0.40;;;;;;;;;;4561875;28;20040;-72
2022/06/06 11:20:02;;;;;;;1.13;0.60;;;;;;;;;;4558888;28;21661;-72
2022/06/06 11:22:24;;;;;;;;;;;;;;;;;;4562646;28;20044;-72
2022/06/06 11:25:12;;;;;;;0.60;0.50;;;;;;;;;;4562237;28;19923;-72
2022/06/06 11:27:47;;;;;;;0.40;0.40;;;;;;;;;;4559578;28;20032;-72
2022/06/06 11:30:21;;;;;;;0.57;0.50;;;;;;;;;;4560842;28;20091;-72
2022/06/06 11:32:54;;;;;;;0.60;0.47;;;;;;;;;;4563429;27;20074;-72
2022/06/06 11:35:14;;;;;;;0.55;0.50;;;;;;;;;;4562438;28;20033;-72
2022/06/06 11:37:41;;;;;;;0.50;0.47;;;;;;;;;;4563077;27;20458;-72
2022/06/06 11:40:11;;;;;;;0.50;0.50;;;;;;;;;;4564872;28;20039;-72
2022/06/06 11:42:48;;;;;;;0.70;0.50;;;;;;;;;;4560673;28;20082;-72
2022/06/06 11:45:33;;;;;;;0.68;0.50;;;;;;;;;;4522214;28;21037;-72
2022/06/06 11:48:27;;;;;;;1.45;0.60;;;;;;;;;;4563185;28;20086;-72
2022/06/06 11:51:06;;;;;;;0.80;0.50;;;;;;;;;;4529415;28;20056;-72
2022/06/06 11:53:42;;;;;;;0.63;0.63;;;;;;;;;;4564120;28;20618;-71
2022/06/06 11:56:20;;;;;;;0.60;0.60;;;;;;;;;;4562240;27;20054;-71
2022/06/06 11:58:50;;;;;;;;;;;;;;;;;;4563543;28;20071;-71
2022/06/06 12:01:37;;;;;;;1.25;0.50;;;;;;;;;;4561983;28;19920;-72
2022/06/06 12:04:06;;;;;;;0.47;0.47;;;;;;;;;;4569798;28;20138;-71
2022/06/06 12:06:38;;;;;;;0.77;0.70;;;;;;;;;;4560643;27;20094;-72
2022/06/06 12:08:57;;;;;;;0.50;0.50;;;;;;;;;;4558943;27;20043;-71
2022/06/06 12:11:46;;;;;;;1.38;0.70;;;;;;;;;;4561146;28;20776;-71
2022/06/06 12:14:08;;;;;;;1.00;0.50;;;;;;;;;;4563865;28;20087;-71
2022/06/06 12:16:40;;;;;;;0.50;0.40;;;;;;;;;;4547097;28;20348;-72
2022/06/06 12:19:12;;;;;;;0.45;0.30;;;;;;;;;;4547486;28;20076;-73
2022/06/06 12:22:00;;;;;;;0.32;0.30;;;;;;;;;;4561174;28;20039;-73
2022/06/06 12:24:44;;;;;;;0.30;0.30;;;;;;;;;;4562582;28;20046;-73
2022/06/06 12:27:03;;;;;;;0.20;0.20;;;;;;;;;;4565125;28;20910;-73
2022/06/06 12:29:51;;;;;;;0.10;0.10;;;;;;;;;;4560035;28;20486;-74
2022/06/06 12:32:09;;;;;;;0.25;0.25;;;;;;;;;;4561473;28;20875;-73
2022/06/06 12:34:40;;;;;;;0.20;0.20;;;;;;;;;;4560133;28;20035;-73
2022/06/06 12:37:17;;;;;;;0.20;0.20;;;;;;;;;;4546274;28;20039;-73
2022/06/06 12:39:43;;;;;;;0.30;0.28;;;;;;;;;;4559797;27;20957;-73
2022/06/06 12:42:09;;;;;;;0.30;0.20;;;;;;;;;;4560425;28;20028;-73
2022/06/06 12:44:54;;;;;;;0.20;0.20;;;;;;;;;;4569824;28;20569;-72
2022/06/06 12:47:36;;;;;;;0.25;0.20;;;;;;;;;;4560254;28;20079;-72
2022/06/06 12:50:06;;;;;;;0.43;0.20;;;;;;;;;;4561388;28;20350;-72
2022/06/06 12:52:47;;;;;;;0.20;0.20;;;;;;;;;;4561429;28;20038;-72
2022/06/06 12:57:16;;;;;;;0.30;0.30;;;;;;;;;;4561604;28;20630;-72
2022/06/06 12:59:33;;;;;;;0.35;0.30;;;;;;;;;;4560520;28;20763;-72
2022/06/06 13:01:50;;;;;;;0.40;0.30;;;;;;;;;;4545887;28;20033;-72
2022/06/06 13:04:15;;;;;;;0.28;0.28;;;;;;;;;;4558216;28;20059;-72
2022/06/06 13:06:28;;;;;;;0.43;0.40;;;;;;;;;;4568538;28;20049;-72
2022/06/06 13:09:17;;;;;;;0.88;0.57;;;;;;;;;;4555305;27;20036;-72
2022/06/06 13:11:46;;;;;;;;;;;;;;;;;;4565034;28;20091;-73
2022/06/06 13:14:23;;;;;;;0.43;0.30;;;;;;;;;;4562833;28;20858;-73
2022/06/06 13:16:46;;;;;;;0.73;0.40;;;;;;;;;;4561444;28;20123;-73
2022/06/06 13:19:15;;;;;;;0.40;0.30;;;;;;;;;;4559580;28;20033;-72
2022/06/06 13:21:51;;;;;;;0.35;0.32;;;;;;;;;;4570195;28;21537;-72
2022/06/06 13:24:04;;;;;;;0.30;0.30;;;;;;;;;;4559197;28;20043;-72
2022/06/06 13:26:38;;;;;;;0.55;0.55;;;;;;;;;;4560894;28;20040;-72
2022/06/06 13:28:53;;;;;;;0.55;0.40;;;;;;;;;;4569170;28;20064;-72
2022/06/06 13:31:22;;;;;;;0.85;0.43;;;;;;;;;;4560221;28;20040;-71
2022/06/06 13:34:00;;;;;;;0.40;0.40;;;;;;;;;;4562813;28;20374;-72
2022/06/06 13:36:29;;;;;;;0.47;0.30;;;;;;;;;;4559071;28;20055;-73
2022/06/06 13:38:55;;;;;;;0.43;0.40;;;;;;;;;;4560583;28;20078;-72
2022/06/06 13:41:20;;;;;;;0.85;0.50;;;;;;;;;;4560848;27;20144;-71
2022/06/06 13:43:56;;;;;;;1.38;0.50;;;;;;;;;;4563183;28;20589;-71
2022/06/06 13:46:18;;;;;;;0.70;0.40;;;;;;;;;;4560494;28;20577;-72
2022/06/06 13:48:51;;;;;;;0.70;0.50;;;;;;;;;;4560604;28;20072;-72
2022/06/06 13:51:25;;;;;;;0.68;0.57;;;;;;;;;;4559531;27;20143;-72
2022/06/06 13:53:59;;;;;;;0.50;0.50;;;;;;;;;;4559723;28;20047;-72
2022/06/06 13:56:47;;;;;;;0.70;0.52;;;;;;;;;;4561268;28;20208;-73
2022/06/06 13:59:00;;;;;;;0.70;0.60;;;;;;;;;;4563222;28;20058;-75
2022/06/06 14:01:36;;;;;;;0.88;0.60;;;;;;;;;;4563552;28;20083;-74
2022/06/06 14:04:04;;;;;;;0.60;0.50;;;;;;;;;;4563924;27;20573;-73
2022/06/06 14:06:26;;;;;;;0.70;0.60;;;;;;;;;;4561958;28;20036;-73
2022/06/06 14:08:50;;;;;;;0.55;0.50;;;;;;;;;;4563055;28;20042;-73
2022/06/06 14:11:05;;;;;;;0.50;0.50;;;;;;;;;;4566277;28;20033;-73
2022/06/06 14:13:47;;;;;;;0.70;0.50;;;;;;;;;;4555557;28;20072;-73
2022/06/06 14:15:58;;;;;;;0.50;0.50;;;;;;;;;;4563411;28;20659;-73
2022/06/06 14:18:12;;;;;;;0.63;0.60;;;;;;;;;;4563732;28;20193;-74
2022/06/06 14:20:44;;;;;;;0.60;0.50;;;;;;;;;;4566823;28;20120;-74
2022/06/06 14:22:54;;;;;;;1.65;0.60;;;;;;;;;;4564200;28;20705;-74
2022/06/06 14:25:06;;;;;;;0.60;0.60;;;;;;;;;;4564918;27;20036;-74
2022/06/06 14:27:19;;;;;;;0.90;0.60;;;;;;;;;;4564677;28;20068;-74
2022/06/06 14:29:34;;;;;;;0.60;0.60;;;;;;;;;;4563208;28;20082;-74
2022/06/06 14:31:57;;;;;;;0.63;0.52;;;;;;;;;;4562947;28;20025;-72
2022/06/06 14:34:20;;;;;;;0.47;0.47;;;;;;;;;;4562747;28;20032;-73
2022/06/06 14:36:30;;;;;;;0.80;0.50;;;;;;;;;;4565061;28;20693;-73
2022/06/06 14:38:41;;;;;;;0.80;0.60;;;;;;;;;;4560809;28;20111;-74
2022/06/06 14:40:55;;;;;;;0.50;0.50;;;;;;;;;;4563114;28;21068;-73
2022/06/06 14:43:06;;;;;;;0.47;0.47;;;;;;;;;;4561626;28;20032;-73
2022/06/06 14:45:30;;;;;;;0.82;0.43;;;;;;;;;;4571759;28;20039;-74
2022/06/06 14:48:03;;;;;;;0.75;0.40;;;;;;;;;;4561481;28;20064;-73